sensor_id;sensor_type;location;lat;lon;timestamp;temperature;humidity
53410;DHT22;66590;50.734;4.246;2023-09-18T00:02:10;21.00;99.90
53410;DHT22;66590;50.734;4.246;2023-09-18T00:04:37;20.90;99.90
53410;DHT22;66590;50.734;4.246;2023-09-18T00:07:06;20.90;99.90
53410;DHT22;66590;50.734;4.246;2023-09-18T00:09:33;20.90;99.90
53410;DHT22;66590;50.734;4.246;2023-09-18T00:12:00;21.00;99.90
53410;DHT22;66590;50.734;4.246;2023-09-18T00:14:26;21.00;99.90
53410;DHT22;66590;50.734;4.246;2023-09-18T00:16:53;21.00;99.90
53410;DHT22;66590;50.734;4.246;2023-09-18T00:19:25;21.10;99.90
53410;DHT22;66590;50.734;4.246;2023-09-18T00:21:52;21.10;99.90
53410;DHT22;66590;50.734;4.246;2023-09-18T00:24:20;21.10;99.90
53410;DHT22;66590;50.734;4.246;2023-09-18T00:26:54;21.10;99.90
53410;DHT22;66590;50.734;4.246;2023-09-18T00:29:21;21.10;99.90
53410;DHT22;66590;50.734;4.246;2023-09-18T00:31:48;21.00;99.90
53410;DHT22;66590;50.734;4.246;2023-09-18T00:34:15;20.90;99.90
53410;DHT22;66590;50.734;4.246;2023-09-18T00:36:56;20.70;99.90
53410;DHT22;66590;50.734;4.246;2023-09-18T00:39:24;20.70;99.90
53410;DHT22;66590;50.734;4.246;2023-09-18T00:41:51;20.70;99.90
53410;DHT22;66590;50.734;4.246;2023-09-18T00:44:18;20.70;99.90
53410;DHT22;66590;50.734;4.246;2023-09-18T00:46:45;20.70;99.90
53410;DHT22;66590;50.734;4.246;2023-09-18T00:49:13;20.60;99.90
53410;DHT22;66590;50.734;4.246;2023-09-18T00:51:40;20.50;99.90
53410;DHT22;66590;50.734;4.246;2023-09-18T00:54:09;20.50;99.90
53410;DHT22;66590;50.734;4.246;2023-09-18T00:56:38;20.40;99.90
53410;DHT22;66590;50.734;4.246;2023-09-18T00:59:05;20.40;99.90
53410;DHT22;66590;50.734;4.246;2023-09-18T01:01:32;20.40;99.90
53410;DHT22;66590;50.734;4.246;2023-09-18T01:03:59;20.50;99.90
53410;DHT22;66590;50.734;4.246;2023-09-18T01:06:27;20.60;99.90
53410;DHT22;66590;50.734;4.246;2023-09-18T01:08:54;20.70;99.90
53410;DHT22;66590;50.734;4.246;2023-09-18T01:11:29;20.60;99.90
53410;DHT22;66590;50.734;4.246;2023-09-18T01:14:06;20.50;99.90
53410;DHT22;66590;50.734;4.246;2023-09-18T01:16:39;20.50;99.90
53410;DHT22;66590;50.734;4.246;2023-09-18T01:19:08;20.50;99.90
53410;DHT22;66590;50.734;4.246;2023-09-18T01:21:35;20.60;99.90
53410;DHT22;66590;50.734;4.246;2023-09-18T01:24:04;20.50;99.90
53410;DHT22;66590;50.734;4.246;2023-09-18T01:26:38;20.60;99.90
53410;DHT22;66590;50.734;4.246;2023-09-18T01:29:05;20.60;99.90
53410;DHT22;66590;50.734;4.246;2023-09-18T01:31:32;20.60;99.90
53410;DHT22;66590;50.734;4.246;2023-09-18T01:33:59;20.60;99.90
53410;DHT22;66590;50.734;4.246;2023-09-18T01:36:27;20.60;99.90
53410;DHT22;66590;50.734;4.246;2023-09-18T01:38:55;20.60;99.90
53410;DHT22;66590;50.734;4.246;2023-09-18T01:41:24;20.60;99.90
53410;DHT22;66590;50.734;4.246;2023-09-18T01:43:51;20.70;99.90
53410;DHT22;66590;50.734;4.246;2023-09-18T01:46:18;20.70;99.90
53410;DHT22;66590;50.734;4.246;2023-09-18T01:48:46;20.60;99.90
53410;DHT22;66590;50.734;4.246;2023-09-18T01:51:14;20.60;99.90
53410;DHT22;66590;50.734;4.246;2023-09-18T01:53:41;20.50;99.90
53410;DHT22;66590;50.734;4.246;2023-09-18T01:56:08;20.60;99.90
53410;DHT22;66590;50.734;4.246;2023-09-18T01:58:36;20.70;99.90
53410;DHT22;66590;50.734;4.246;2023-09-18T02:01:03;20.70;99.90
53410;DHT22;66590;50.734;4.246;2023-09-18T02:03:31;20.60;99.90
53410;DHT22;66590;50.734;4.246;2023-09-18T02:06:18;20.70;99.90
53410;DHT22;66590;50.734;4.246;2023-09-18T02:08:45;20.70;99.90
53410;DHT22;66590;50.734;4.246;2023-09-18T02:11:12;20.70;99.90
53410;DHT22;66590;50.734;4.246;2023-09-18T02:13:40;20.80;99.90
53410;DHT22;66590;50.734;4.246;2023-09-18T02:16:07;20.60;99.90
53410;DHT22;66590;50.734;4.246;2023-09-18T02:18:34;20.60;99.90
53410;DHT22;66590;50.734;4.246;2023-09-18T02:21:01;20.60;99.90
53410;DHT22;66590;50.734;4.246;2023-09-18T02:23:28;20.80;99.90
53410;DHT22;66590;50.734;4.246;2023-09-18T02:25:58;20.70;99.90
53410;DHT22;66590;50.734;4.246;2023-09-18T02:28:32;20.60;99.90
53410;DHT22;66590;50.734;4.246;2023-09-18T02:31:00;20.60;99.90
53410;DHT22;66590;50.734;4.246;2023-09-18T02:33:27;20.70;99.90
53410;DHT22;66590;50.734;4.246;2023-09-18T02:35:54;20.50;99.90
53410;DHT22;66590;50.734;4.246;2023-09-18T02:38:21;20.30;99.90
53410;DHT22;66590;50.734;4.246;2023-09-18T02:40:48;20.10;99.90
53410;DHT22;66590;50.734;4.246;2023-09-18T02:43:15;20.20;99.90
53410;DHT22;66590;50.734;4.246;2023-09-18T02:45:42;20.30;99.90
53410;DHT22;66590;50.734;4.246;2023-09-18T02:48:11;20.30;99.90
53410;DHT22;66590;50.734;4.246;2023-09-18T02:50:38;20.30;99.90
53410;DHT22;66590;50.734;4.246;2023-09-18T02:53:06;20.40;99.90
53410;DHT22;66590;50.734;4.246;2023-09-18T02:55:34;20.50;99.90
53410;DHT22;66590;50.734;4.246;2023-09-18T02:58:01;20.60;99.90
53410;DHT22;66590;50.734;4.246;2023-09-18T03:00:28;20.60;99.90
53410;DHT22;66590;50.734;4.246;2023-09-18T03:03:11;20.60;99.90
53410;DHT22;66590;50.734;4.246;2023-09-18T03:05:39;20.60;99.90
53410;DHT22;66590;50.734;4.246;2023-09-18T03:08:07;20.60;99.90
53410;DHT22;66590;50.734;4.246;2023-09-18T03:10:35;20.60;99.90
53410;DHT22;66590;50.734;4.246;2023-09-18T03:13:03;20.50;99.90
53410;DHT22;66590;50.734;4.246;2023-09-18T03:15:30;20.50;99.90
53410;DHT22;66590;50.734;4.246;2023-09-18T03:17:58;20.40;99.90
53410;DHT22;66590;50.734;4.246;2023-09-18T03:20:27;20.50;99.90
53410;DHT22;66590;50.734;4.246;2023-09-18T03:22:55;20.70;99.90
53410;DHT22;66590;50.734;4.246;2023-09-18T03:25:23;20.80;99.90
53410;DHT22;66590;50.734;4.246;2023-09-18T03:27:57;20.60;99.90
53410;DHT22;66590;50.734;4.246;2023-09-18T03:30:24;20.60;99.90
53410;DHT22;66590;50.734;4.246;2023-09-18T03:32:52;20.60;99.90
53410;DHT22;66590;50.734;4.246;2023-09-18T03:35:19;20.60;99.90
53410;DHT22;66590;50.734;4.246;2023-09-18T03:37:50;20.60;99.90
53410;DHT22;66590;50.734;4.246;2023-09-18T03:40:18;20.60;99.90
53410;DHT22;66590;50.734;4.246;2023-09-18T03:42:45;20.60;99.90
53410;DHT22;66590;50.734;4.246;2023-09-18T03:45:13;20.50;99.90
53410;DHT22;66590;50.734;4.246;2023-09-18T03:47:41;20.50;99.90
53410;DHT22;66590;50.734;4.246;2023-09-18T03:50:09;20.50;99.90
53410;DHT22;66590;50.734;4.246;2023-09-18T03:52:37;20.50;99.90
53410;DHT22;66590;50.734;4.246;2023-09-18T03:55:06;20.40;99.90
53410;DHT22;66590;50.734;4.246;2023-09-18T03:57:34;20.40;99.90
53410;DHT22;66590;50.734;4.246;2023-09-18T04:00:01;20.30;99.90
53410;DHT22;66590;50.734;4.246;2023-09-18T04:02:29;20.30;99.90
53410;DHT22;66590;50.734;4.246;2023-09-18T04:04:56;20.40;99.90
53410;DHT22;66590;50.734;4.246;2023-09-18T04:07:23;20.30;99.90
53410;DHT22;66590;50.734;4.246;2023-09-18T04:09:50;20.20;99.90
53410;DHT22;66590;50.734;4.246;2023-09-18T04:12:18;20.20;99.90
53410;DHT22;66590;50.734;4.246;2023-09-18T04:14:45;20.20;99.90
53410;DHT22;66590;50.734;4.246;2023-09-18T04:17:12;20.20;99.90
53410;DHT22;66590;50.734;4.246;2023-09-18T04:19:39;20.20;99.90
53410;DHT22;66590;50.734;4.246;2023-09-18T04:22:06;20.00;99.90
53410;DHT22;66590;50.734;4.246;2023-09-18T04:24:33;20.10;99.90
53410;DHT22;66590;50.734;4.246;2023-09-18T04:27:06;20.20;99.90
53410;DHT22;66590;50.734;4.246;2023-09-18T04:29:34;20.20;99.90
53410;DHT22;66590;50.734;4.246;2023-09-18T04:32:02;20.00;99.90
53410;DHT22;66590;50.734;4.246;2023-09-18T04:34:30;19.90;99.90
53410;DHT22;66590;50.734;4.246;2023-09-18T04:36:56;19.90;99.90
53410;DHT22;66590;50.734;4.246;2023-09-18T04:39:23;19.90;99.90
53410;DHT22;66590;50.734;4.246;2023-09-18T04:41:50;19.80;99.90
53410;DHT22;66590;50.734;4.246;2023-09-18T04:44:17;19.80;99.90
53410;DHT22;66590;50.734;4.246;2023-09-18T04:46:46;19.70;99.90
53410;DHT22;66590;50.734;4.246;2023-09-18T04:49:13;19.80;99.90
53410;DHT22;66590;50.734;4.246;2023-09-18T04:51:40;19.70;99.90
53410;DHT22;66590;50.734;4.246;2023-09-18T04:54:07;19.60;99.90
53410;DHT22;66590;50.734;4.246;2023-09-18T04:56:33;19.60;99.90
53410;DHT22;66590;50.734;4.246;2023-09-18T04:59:07;19.60;99.90
53410;DHT22;66590;50.734;4.246;2023-09-18T05:01:34;19.50;99.90
53410;DHT22;66590;50.734;4.246;2023-09-18T05:04:03;19.80;99.90
53410;DHT22;66590;50.734;4.246;2023-09-18T05:06:36;19.80;99.90
53410;DHT22;66590;50.734;4.246;2023-09-18T05:09:03;19.70;99.90
53410;DHT22;66590;50.734;4.246;2023-09-18T05:11:37;19.60;99.90
53410;DHT22;66590;50.734;4.246;2023-09-18T05:14:04;19.60;99.90
53410;DHT22;66590;50.734;4.246;2023-09-18T05:16:37;19.60;99.90
53410;DHT22;66590;50.734;4.246;2023-09-18T05:19:06;19.40;99.90
53410;DHT22;66590;50.734;4.246;2023-09-18T05:21:33;19.50;99.90
53410;DHT22;66590;50.734;4.246;2023-09-18T05:24:06;19.30;99.90
53410;DHT22;66590;50.734;4.246;2023-09-18T05:26:33;19.20;99.90
53410;DHT22;66590;50.734;4.246;2023-09-18T05:29:14;19.30;99.90
53410;DHT22;66590;50.734;4.246;2023-09-18T05:31:47;19.30;99.90
53410;DHT22;66590;50.734;4.246;2023-09-18T05:34:22;19.50;99.90
53410;DHT22;66590;50.734;4.246;2023-09-18T05:36:49;19.40;99.90
53410;DHT22;66590;50.734;4.246;2023-09-18T05:39:16;19.20;99.90
53410;DHT22;66590;50.734;4.246;2023-09-18T05:41:49;19.20;99.90
53410;DHT22;66590;50.734;4.246;2023-09-18T05:44:16;19.20;99.90
53410;DHT22;66590;50.734;4.246;2023-09-18T05:46:49;19.20;99.90
53410;DHT22;66590;50.734;4.246;2023-09-18T05:49:16;19.20;99.90
53410;DHT22;66590;50.734;4.246;2023-09-18T05:51:52;19.20;99.90
53410;DHT22;66590;50.734;4.246;2023-09-18T05:54:19;19.20;99.90
53410;DHT22;66590;50.734;4.246;2023-09-18T05:56:46;19.10;99.90
53410;DHT22;66590;50.734;4.246;2023-09-18T05:59:19;19.10;99.90
53410;DHT22;66590;50.734;4.246;2023-09-18T06:01:52;19.10;99.90
53410;DHT22;66590;50.734;4.246;2023-09-18T06:04:19;19.10;99.90
53410;DHT22;66590;50.734;4.246;2023-09-18T06:06:54;19.00;99.90
53410;DHT22;66590;50.734;4.246;2023-09-18T06:09:21;19.20;99.90
53410;DHT22;66590;50.734;4.246;2023-09-18T06:11:48;19.20;99.90
53410;DHT22;66590;50.734;4.246;2023-09-18T06:14:23;19.30;99.90
53410;DHT22;66590;50.734;4.246;2023-09-18T06:16:50;19.40;99.90
53410;DHT22;66590;50.734;4.246;2023-09-18T06:19:23;19.40;99.90
53410;DHT22;66590;50.734;4.246;2023-09-18T06:21:50;19.30;99.90
53410;DHT22;66590;50.734;4.246;2023-09-18T06:24:19;19.30;99.90
53410;DHT22;66590;50.734;4.246;2023-09-18T06:26:59;19.20;99.90
53410;DHT22;66590;50.734;4.246;2023-09-18T06:29:26;19.20;99.90
53410;DHT22;66590;50.734;4.246;2023-09-18T06:31:59;19.20;99.90
53410;DHT22;66590;50.734;4.246;2023-09-18T06:34:27;19.20;99.90
53410;DHT22;66590;50.734;4.246;2023-09-18T06:36:54;19.20;99.90
53410;DHT22;66590;50.734;4.246;2023-09-18T06:39:29;19.20;99.90
53410;DHT22;66590;50.734;4.246;2023-09-18T06:41:56;19.30;99.90
53410;DHT22;66590;50.734;4.246;2023-09-18T06:44:29;19.30;99.90
53410;DHT22;66590;50.734;4.246;2023-09-18T06:46:56;19.20;99.90
53410;DHT22;66590;50.734;4.246;2023-09-18T06:49:24;19.20;99.90
53410;DHT22;66590;50.734;4.246;2023-09-18T06:51:57;19.10;99.90
53410;DHT22;66590;50.734;4.246;2023-09-18T06:54:24;19.10;99.90
53410;DHT22;66590;50.734;4.246;2023-09-18T06:56:59;19.10;99.90
53410;DHT22;66590;50.734;4.246;2023-09-18T06:59:26;19.10;99.90
53410;DHT22;66590;50.734;4.246;2023-09-18T07:01:56;19.20;99.90
53410;DHT22;66590;50.734;4.246;2023-09-18T07:04:29;19.20;99.90
53410;DHT22;66590;50.734;4.246;2023-09-18T07:07:03;19.20;99.90
53410;DHT22;66590;50.734;4.246;2023-09-18T07:09:36;19.10;99.90
53410;DHT22;66590;50.734;4.246;2023-09-18T07:12:22;19.20;99.90
53410;DHT22;66590;50.734;4.246;2023-09-18T07:14:55;19.20;99.90
53410;DHT22;66590;50.734;4.246;2023-09-18T07:17:22;19.40;99.90
53410;DHT22;66590;50.734;4.246;2023-09-18T07:19:49;19.50;99.90
53410;DHT22;66590;50.734;4.246;2023-09-18T07:22:22;19.70;99.90
53410;DHT22;66590;50.734;4.246;2023-09-18T07:24:49;19.70;99.90
53410;DHT22;66590;50.734;4.246;2023-09-18T07:27:24;19.70;99.90
53410;DHT22;66590;50.734;4.246;2023-09-18T07:29:58;19.50;99.90
53410;DHT22;66590;50.734;4.246;2023-09-18T07:32:25;19.60;99.90
53410;DHT22;66590;50.734;4.246;2023-09-18T07:35:06;19.80;99.90
53410;DHT22;66590;50.734;4.246;2023-09-18T07:37:33;20.10;99.90
53410;DHT22;66590;50.734;4.246;2023-09-18T07:40:07;20.20;99.90
53410;DHT22;66590;50.734;4.246;2023-09-18T07:42:35;20.20;99.90
53410;DHT22;66590;50.734;4.246;2023-09-18T07:45:03;20.30;99.90
53410;DHT22;66590;50.734;4.246;2023-09-18T07:47:36;20.20;99.90
53410;DHT22;66590;50.734;4.246;2023-09-18T07:50:05;20.10;99.90
53410;DHT22;66590;50.734;4.246;2023-09-18T07:52:32;20.10;99.90
53410;DHT22;66590;50.734;4.246;2023-09-18T07:55:07;19.90;99.90
53410;DHT22;66590;50.734;4.246;2023-09-18T07:57:42;20.00;99.90
53410;DHT22;66590;50.734;4.246;2023-09-18T08:00:16;20.00;99.90
53410;DHT22;66590;50.734;4.246;2023-09-18T08:02:43;20.20;99.90
53410;DHT22;66590;50.734;4.246;2023-09-18T08:05:10;20.40;99.90
53410;DHT22;66590;50.734;4.246;2023-09-18T08:07:43;20.60;99.90
53410;DHT22;66590;50.734;4.246;2023-09-18T08:10:11;20.70;99.90
53410;DHT22;66590;50.734;4.246;2023-09-18T08:12:38;20.70;99.90
53410;DHT22;66590;50.734;4.246;2023-09-18T08:15:13;20.60;99.90
53410;DHT22;66590;50.734;4.246;2023-09-18T08:17:46;20.60;99.90
53410;DHT22;66590;50.734;4.246;2023-09-18T08:20:21;20.50;99.90
53410;DHT22;66590;50.734;4.246;2023-09-18T08:22:48;20.50;99.90
53410;DHT22;66590;50.734;4.246;2023-09-18T08:25:15;20.70;99.90
53410;DHT22;66590;50.734;4.246;2023-09-18T08:27:55;20.40;99.90
53410;DHT22;66590;50.734;4.246;2023-09-18T08:30:23;20.30;99.90
53410;DHT22;66590;50.734;4.246;2023-09-18T08:32:56;20.40;99.90
53410;DHT22;66590;50.734;4.246;2023-09-18T08:35:24;20.40;99.90
53410;DHT22;66590;50.734;4.246;2023-09-18T08:37:58;20.30;99.90
53410;DHT22;66590;50.734;4.246;2023-09-18T08:40:25;20.20;99.90
53410;DHT22;66590;50.734;4.246;2023-09-18T08:42:52;20.30;99.90
53410;DHT22;66590;50.734;4.246;2023-09-18T08:45:35;20.20;99.90
53410;DHT22;66590;50.734;4.246;2023-09-18T08:48:05;20.20;99.90
53410;DHT22;66590;50.734;4.246;2023-09-18T08:50:39;20.20;99.90
53410;DHT22;66590;50.734;4.246;2023-09-18T08:53:07;20.30;99.90
53410;DHT22;66590;50.734;4.246;2023-09-18T08:55:40;20.20;99.90
53410;DHT22;66590;50.734;4.246;2023-09-18T08:58:07;20.00;99.90
53410;DHT22;66590;50.734;4.246;2023-09-18T09:00:37;20.10;99.90
53410;DHT22;66590;50.734;4.246;2023-09-18T09:03:10;20.00;99.90
53410;DHT22;66590;50.734;4.246;2023-09-18T09:05:37;20.10;99.90
53410;DHT22;66590;50.734;4.246;2023-09-18T09:08:04;20.00;99.90
53410;DHT22;66590;50.734;4.246;2023-09-18T09:10:38;19.90;99.90
53410;DHT22;66590;50.734;4.246;2023-09-18T09:13:05;19.90;99.90
53410;DHT22;66590;50.734;4.246;2023-09-18T09:15:46;19.90;99.90
53410;DHT22;66590;50.734;4.246;2023-09-18T09:18:14;19.90;99.90
53410;DHT22;66590;50.734;4.246;2023-09-18T09:20:54;20.10;99.90
53410;DHT22;66590;50.734;4.246;2023-09-18T09:23:21;20.30;99.90
53410;DHT22;66590;50.734;4.246;2023-09-18T09:26:11;20.50;99.90
53410;DHT22;66590;50.734;4.246;2023-09-18T09:28:51;20.40;99.90
53410;DHT22;66590;50.734;4.246;2023-09-18T09:31:27;20.40;99.90
53410;DHT22;66590;50.734;4.246;2023-09-18T09:34:01;20.50;99.90
53410;DHT22;66590;50.734;4.246;2023-09-18T09:36:34;20.40;99.90
53410;DHT22;66590;50.734;4.246;2023-09-18T09:39:10;20.30;99.90
53410;DHT22;66590;50.734;4.246;2023-09-18T09:41:45;20.20;99.90
53410;DHT22;66590;50.734;4.246;2023-09-18T09:44:19;20.10;99.90
53410;DHT22;66590;50.734;4.246;2023-09-18T09:46:54;20.10;99.90
53410;DHT22;66590;50.734;4.246;2023-09-18T09:49:27;20.20;99.90
53410;DHT22;66590;50.734;4.246;2023-09-18T09:52:01;20.20;99.90
53410;DHT22;66590;50.734;4.246;2023-09-18T09:54:35;20.10;99.90
53410;DHT22;66590;50.734;4.246;2023-09-18T09:57:08;20.10;99.90
53410;DHT22;66590;50.734;4.246;2023-09-18T09:59:41;20.10;99.90
53410;DHT22;66590;50.734;4.246;2023-09-18T10:02:10;20.10;99.90
53410;DHT22;66590;50.734;4.246;2023-09-18T10:04:38;20.00;99.90
53410;DHT22;66590;50.734;4.246;2023-09-18T10:07:07;20.20;99.90
53410;DHT22;66590;50.734;4.246;2023-09-18T10:09:35;20.20;99.90
53410;DHT22;66590;50.734;4.246;2023-09-18T10:12:04;20.20;99.90
53410;DHT22;66590;50.734;4.246;2023-09-18T10:14:33;20.10;99.90
53410;DHT22;66590;50.734;4.246;2023-09-18T10:17:22;20.10;99.90
53410;DHT22;66590;50.734;4.246;2023-09-18T10:19:56;20.00;99.90
53410;DHT22;66590;50.734;4.246;2023-09-18T10:22:30;20.00;99.90
53410;DHT22;66590;50.734;4.246;2023-09-18T10:25:03;19.80;99.90
53410;DHT22;66590;50.734;4.246;2023-09-18T10:27:32;19.70;99.90
53410;DHT22;66590;50.734;4.246;2023-09-18T10:30:00;19.60;99.90
53410;DHT22;66590;50.734;4.246;2023-09-18T10:32:29;19.70;99.90
53410;DHT22;66590;50.734;4.246;2023-09-18T10:34:57;19.80;99.90
53410;DHT22;66590;50.734;4.246;2023-09-18T10:37:24;20.00;99.90
53410;DHT22;66590;50.734;4.246;2023-09-18T10:39:53;19.90;99.90
53410;DHT22;66590;50.734;4.246;2023-09-18T10:42:22;19.90;99.90
53410;DHT22;66590;50.734;4.246;2023-09-18T10:44:50;20.00;99.90
53410;DHT22;66590;50.734;4.246;2023-09-18T10:47:18;20.20;99.90
53410;DHT22;66590;50.734;4.246;2023-09-18T10:49:47;20.50;99.90
53410;DHT22;66590;50.734;4.246;2023-09-18T10:52:14;21.00;99.90
53410;DHT22;66590;50.734;4.246;2023-09-18T10:54:41;21.50;99.90
53410;DHT22;66590;50.734;4.246;2023-09-18T10:57:08;21.90;99.90
53410;DHT22;66590;50.734;4.246;2023-09-18T10:59:43;22.10;99.90
53410;DHT22;66590;50.734;4.246;2023-09-18T11:02:13;22.30;99.90
53410;DHT22;66590;50.734;4.246;2023-09-18T11:04:41;22.60;99.90
53410;DHT22;66590;50.734;4.246;2023-09-18T11:07:19;22.80;99.90
53410;DHT22;66590;50.734;4.246;2023-09-18T11:09:46;23.20;99.90
53410;DHT22;66590;50.734;4.246;2023-09-18T11:12:15;23.30;99.90
53410;DHT22;66590;50.734;4.246;2023-09-18T11:14:47;23.10;99.90
53410;DHT22;66590;50.734;4.246;2023-09-18T11:17:35;22.50;99.90
53410;DHT22;66590;50.734;4.246;2023-09-18T11:20:07;22.50;99.90
53410;DHT22;66590;50.734;4.246;2023-09-18T11:22:37;22.40;99.90
53410;DHT22;66590;50.734;4.246;2023-09-18T11:25:30;22.10;99.90
53410;DHT22;66590;50.734;4.246;2023-09-18T11:28:01;22.00;99.90
53410;DHT22;66590;50.734;4.246;2023-09-18T11:30:29;22.00;99.90
53410;DHT22;66590;50.734;4.246;2023-09-18T11:32:56;22.20;99.90
53410;DHT22;66590;50.734;4.246;2023-09-18T11:35:25;22.50;99.90
53410;DHT22;66590;50.734;4.246;2023-09-18T11:38:08;22.60;99.90
53410;DHT22;66590;50.734;4.246;2023-09-18T11:40:36;22.90;99.90
53410;DHT22;66590;50.734;4.246;2023-09-18T11:43:23;22.80;99.90
53410;DHT22;66590;50.734;4.246;2023-09-18T11:45:51;22.80;99.90
53410;DHT22;66590;50.734;4.246;2023-09-18T11:48:19;23.20;99.90
53410;DHT22;66590;50.734;4.246;2023-09-18T11:50:47;23.50;99.90
53410;DHT22;66590;50.734;4.246;2023-09-18T11:53:16;23.90;99.90
53410;DHT22;66590;50.734;4.246;2023-09-18T11:55:43;24.00;99.90
53410;DHT22;66590;50.734;4.246;2023-09-18T11:58:10;23.70;99.90
53410;DHT22;66590;50.734;4.246;2023-09-18T12:00:37;24.10;99.90
53410;DHT22;66590;50.734;4.246;2023-09-18T12:03:14;23.70;99.90
53410;DHT22;66590;50.734;4.246;2023-09-18T12:05:41;23.90;99.90
53410;DHT22;66590;50.734;4.246;2023-09-18T12:08:08;24.00;99.90
53410;DHT22;66590;50.734;4.246;2023-09-18T12:10:36;23.90;99.90
53410;DHT22;66590;50.734;4.246;2023-09-18T12:13:06;24.10;99.90
53410;DHT22;66590;50.734;4.246;2023-09-18T12:15:33;24.20;99.90
53410;DHT22;66590;50.734;4.246;2023-09-18T12:18:05;24.40;99.90
53410;DHT22;66590;50.734;4.246;2023-09-18T12:20:32;24.60;99.90
53410;DHT22;66590;50.734;4.246;2023-09-18T12:22:59;24.70;99.90
53410;DHT22;66590;50.734;4.246;2023-09-18T12:25:26;24.60;99.90
53410;DHT22;66590;50.734;4.246;2023-09-18T12:27:55;24.70;99.90
53410;DHT22;66590;50.734;4.246;2023-09-18T12:30:22;24.20;99.90
53410;DHT22;66590;50.734;4.246;2023-09-18T12:32:51;24.40;99.90
53410;DHT22;66590;50.734;4.246;2023-09-18T12:35:18;24.60;99.90
53410;DHT22;66590;50.734;4.246;2023-09-18T12:37:45;24.60;99.90
53410;DHT22;66590;50.734;4.246;2023-09-18T12:40:31;24.70;99.90
53410;DHT22;66590;50.734;4.246;2023-09-18T12:42:59;24.70;99.90
53410;DHT22;66590;50.734;4.246;2023-09-18T12:45:27;24.40;99.90
53410;DHT22;66590;50.734;4.246;2023-09-18T12:47:56;24.20;99.90
53410;DHT22;66590;50.734;4.246;2023-09-18T12:50:24;24.40;99.90
53410;DHT22;66590;50.734;4.246;2023-09-18T12:52:51;24.80;99.90
53410;DHT22;66590;50.734;4.246;2023-09-18T12:55:22;24.90;99.90
53410;DHT22;66590;50.734;4.246;2023-09-18T12:57:49;25.00;99.90
53410;DHT22;66590;50.734;4.246;2023-09-18T13:00:19;25.10;99.90
53410;DHT22;66590;50.734;4.246;2023-09-18T13:02:47;25.10;99.90
53410;DHT22;66590;50.734;4.246;2023-09-18T13:05:19;24.80;99.90
53410;DHT22;66590;50.734;4.246;2023-09-18T13:07:46;25.00;99.90
53410;DHT22;66590;50.734;4.246;2023-09-18T13:10:13;25.00;99.90
53410;DHT22;66590;50.734;4.246;2023-09-18T13:12:41;24.90;99.90
53410;DHT22;66590;50.734;4.246;2023-09-18T13:15:09;25.30;99.90
53410;DHT22;66590;50.734;4.246;2023-09-18T13:17:42;25.20;99.90
53410;DHT22;66590;50.734;4.246;2023-09-18T13:20:13;25.10;99.90
53410;DHT22;66590;50.734;4.246;2023-09-18T13:22:42;25.10;99.90
53410;DHT22;66590;50.734;4.246;2023-09-18T13:25:10;24.80;99.90
53410;DHT22;66590;50.734;4.246;2023-09-18T13:27:37;24.90;99.90
53410;DHT22;66590;50.734;4.246;2023-09-18T13:30:06;25.20;99.90
53410;DHT22;66590;50.734;4.246;2023-09-18T13:32:34;25.20;99.90
53410;DHT22;66590;50.734;4.246;2023-09-18T13:35:07;25.00;99.90
53410;DHT22;66590;50.734;4.246;2023-09-18T13:37:34;25.20;99.90
53410;DHT22;66590;50.734;4.246;2023-09-18T13:40:01;25.40;99.90
53410;DHT22;66590;50.734;4.246;2023-09-18T13:42:29;25.30;99.90
53410;DHT22;66590;50.734;4.246;2023-09-18T13:44:57;25.20;99.90
53410;DHT22;66590;50.734;4.246;2023-09-18T13:47:24;25.40;99.90
53410;DHT22;66590;50.734;4.246;2023-09-18T13:49:51;25.40;99.90
53410;DHT22;66590;50.734;4.246;2023-09-18T13:52:19;25.30;99.90
53410;DHT22;66590;50.734;4.246;2023-09-18T13:54:46;24.90;99.90
53410;DHT22;66590;50.734;4.246;2023-09-18T13:57:15;24.90;99.90
53410;DHT22;66590;50.734;4.246;2023-09-18T13:59:42;24.80;99.90
53410;DHT22;66590;50.734;4.246;2023-09-18T14:02:10;24.70;99.90
53410;DHT22;66590;50.734;4.246;2023-09-18T14:04:37;24.50;99.90
53410;DHT22;66590;50.734;4.246;2023-09-18T14:07:04;24.20;99.90
53410;DHT22;66590;50.734;4.246;2023-09-18T14:09:32;24.00;99.90
53410;DHT22;66590;50.734;4.246;2023-09-18T14:11:59;24.00;99.90
53410;DHT22;66590;50.734;4.246;2023-09-18T14:14:26;24.00;99.90
53410;DHT22;66590;50.734;4.246;2023-09-18T14:16:53;24.00;99.90
53410;DHT22;66590;50.734;4.246;2023-09-18T14:19:24;23.80;99.90
53410;DHT22;66590;50.734;4.246;2023-09-18T14:21:51;23.70;99.90
53410;DHT22;66590;50.734;4.246;2023-09-18T14:24:18;23.80;99.90
53410;DHT22;66590;50.734;4.246;2023-09-18T14:26:47;23.80;99.90
53410;DHT22;66590;50.734;4.246;2023-09-18T14:29:14;23.40;99.90
53410;DHT22;66590;50.734;4.246;2023-09-18T14:31:41;23.10;99.90
53410;DHT22;66590;50.734;4.246;2023-09-18T14:34:10;22.80;99.90
53410;DHT22;66590;50.734;4.246;2023-09-18T14:36:37;22.20;99.90
53410;DHT22;66590;50.734;4.246;2023-09-18T14:39:05;21.30;99.90
53410;DHT22;66590;50.734;4.246;2023-09-18T14:41:32;20.50;99.90
53410;DHT22;66590;50.734;4.246;2023-09-18T14:44:00;20.00;99.90
53410;DHT22;66590;50.734;4.246;2023-09-18T14:46:27;19.50;99.90
53410;DHT22;66590;50.734;4.246;2023-09-18T14:48:54;19.40;99.90
53410;DHT22;66590;50.734;4.246;2023-09-18T14:51:21;19.60;99.90
53410;DHT22;66590;50.734;4.246;2023-09-18T14:53:48;19.60;99.90
53410;DHT22;66590;50.734;4.246;2023-09-18T14:56:15;19.50;99.90
53410;DHT22;66590;50.734;4.246;2023-09-18T14:58:42;19.50;99.90
53410;DHT22;66590;50.734;4.246;2023-09-18T15:01:11;19.60;99.90
53410;DHT22;66590;50.734;4.246;2023-09-18T15:03:41;19.70;99.90
53410;DHT22;66590;50.734;4.246;2023-09-18T15:06:08;19.70;99.90
53410;DHT22;66590;50.734;4.246;2023-09-18T15:08:36;19.90;99.90
53410;DHT22;66590;50.734;4.246;2023-09-18T15:11:03;19.90;99.90
53410;DHT22;66590;50.734;4.246;2023-09-18T15:13:30;20.30;99.90
53410;DHT22;66590;50.734;4.246;2023-09-18T15:15:57;20.60;99.90
53410;DHT22;66590;50.734;4.246;2023-09-18T15:18:26;20.80;99.90
53410;DHT22;66590;50.734;4.246;2023-09-18T15:20:53;20.90;99.90
53410;DHT22;66590;50.734;4.246;2023-09-18T15:23:20;20.90;99.90
53410;DHT22;66590;50.734;4.246;2023-09-18T15:25:47;20.90;99.90
53410;DHT22;66590;50.734;4.246;2023-09-18T15:28:14;20.90;99.90
53410;DHT22;66590;50.734;4.246;2023-09-18T15:30:41;20.80;99.90
53410;DHT22;66590;50.734;4.246;2023-09-18T15:33:08;20.80;99.90
53410;DHT22;66590;50.734;4.246;2023-09-18T15:35:37;20.80;99.90
53410;DHT22;66590;50.734;4.246;2023-09-18T15:38:04;20.80;99.90
53410;DHT22;66590;50.734;4.246;2023-09-18T15:40:31;20.70;99.90
53410;DHT22;66590;50.734;4.246;2023-09-18T15:42:58;20.70;99.90
53410;DHT22;66590;50.734;4.246;2023-09-18T15:45:25;20.90;99.90